Time;durP1;ratioP1;P1;durP2;ratioP2;P2;SDS_P1;SDS_P2;PMS_P1;PMS_P2;Temp;Humidity;BMP_temperature;BMP_pressure;BME280_temperature;BME280_humidity;BME280_pressure;Samples;Min_cycle;Max_cycle;Signal;HPM_P1;HPM_P2
2022/09/04 00:00:09;;;;;;;8.25;6.07;;;20.10;44.50;;;;;;5071465;28;20172;-43
2022/09/04 00:02:38;;;;;;;6.68;5.82;;;20.20;44.60;;;;;;5075272;28;20156;-42
2022/09/04 00:05:24;;;;;;;7.82;5.90;;;20.20;44.40;;;;;;5075148;28;20280;-44
2022/09/04 00:08:06;;;;;;;6.82;5.13;;;20.20;44.50;;;;;;5074673;28;20253;-42
2022/09/04 00:10:38;;;;;;;7.25;6.22;;;20.20;44.60;;;;;;5075027;28;20204;-43
2022/09/04 00:13:10;;;;;;;7.45;6.68;;;20.20;44.70;;;;;;5075004;28;20210;-44
2022/09/04 00:15:44;;;;;;;7.07;5.45;;;20.30;44.80;;;;;;5074738;28;20180;-44
2022/09/04 00:18:27;;;;;;;6.22;5.63;;;20.30;44.50;;;;;;5074799;28;20153;-43
2022/09/04 00:21:03;;;;;;;8.00;6.38;;;20.30;44.50;;;;;;5074668;28;20204;-42
2022/09/04 00:23:48;;;;;;;6.50;5.57;;;20.30;44.50;;;;;;5074789;28;20636;-43
2022/09/04 00:26:55;;;;;;;8.55;5.82;;;20.30;44.70;;;;;;5074558;28;20165;-44
2022/09/04 00:29:25;;;;;;;6.53;5.50;;;20.30;44.90;;;;;;5074814;28;20156;-44
2022/09/04 00:31:57;;;;;;;7.60;5.53;;;20.30;44.60;;;;;;5074604;28;20193;-42
2022/09/04 00:34:28;;;;;;;7.63;6.82;;;20.30;44.60;;;;;;5074440;28;20180;-44
2022/09/04 00:37:00;;;;;;;9.13;6.22;;;20.30;44.60;;;;;;5074228;28;20177;-43
2022/09/04 00:39:39;;;;;;;7.47;6.30;;;20.30;44.70;;;;;;5074504;28;20548;-44
2022/09/04 00:42:27;;;;;;;6.05;5.45;;;20.40;44.70;;;;;;5074369;28;20204;-44
2022/09/04 00:45:31;;;;;;;7.85;7.00;;;20.30;44.80;;;;;;5074502;28;20251;-44
2022/09/04 00:48:11;;;;;;;6.18;5.25;;;20.30;44.60;;;;;;5022861;28;20187;-44
2022/09/04 00:51:01;;;;;;;9.20;6.07;;;20.30;44.50;;;;;;5074233;28;20192;-45
2022/09/04 00:53:51;;;;;;;8.93;5.45;;;20.30;44.60;;;;;;5074278;28;20157;-43
2022/09/04 00:56:51;;;;;;;7.57;6.25;;;20.30;44.90;;;;;;5074018;28;20635;-43
2022/09/04 00:59:45;;;;;;;7.63;6.10;;;20.30;44.80;;;;;;5074169;28;20636;-42
2022/09/04 01:02:40;;;;;;;5.15;4.65;;;20.30;44.90;;;;;;5074076;28;20192;-42
2022/09/04 01:05:27;;;;;;;8.88;5.70;;;20.30;44.90;;;;;;5060683;28;20207;-44
2022/09/04 01:08:19;;;;;;;6.85;5.40;;;20.30;45.00;;;;;;5073868;28;20612;-43
2022/09/04 01:11:02;;;;;;;7.55;5.22;;;20.30;45.10;;;;;;5074093;28;20205;-44
2022/09/04 01:13:50;;;;;;;6.90;5.57;;;20.30;45.30;;;;;;5072814;28;20658;-43
2022/09/04 01:16:32;;;;;;;10.93;6.30;;;20.30;45.20;;;;;;5073627;28;20731;-44
2022/09/04 01:19:31;;;;;;;6.45;4.93;;;20.30;45.40;;;;;;5073746;28;20176;-42
2022/09/04 01:22:09;;;;;;;7.15;5.28;;;20.30;45.30;;;;;;5073491;28;20219;-43
2022/09/04 01:24:48;;;;;;;5.97;5.38;;;20.30;45.00;;;;;;5073713;28;20168;-43
2022/09/04 01:27:41;;;;;;;7.00;5.32;;;20.30;45.20;;;;;;5073410;28;20172;-44
2022/09/04 01:30:14;;;;;;;10.20;5.90;;;20.30;45.40;;;;;;5073372;28;20189;-43
2022/09/04 01:33:24;;;;;;;11.60;6.68;;;20.30;45.40;;;;;;5073510;28;20180;-42
2022/09/04 01:36:12;;;;;;;10.45;5.80;;;20.30;45.40;;;;;;5073272;28;20153;-43
2022/09/04 01:38:53;;;;;;;7.70;5.22;;;20.30;45.40;;;;;;5073407;28;20237;-43
2022/09/04 01:41:31;;;;;;;5.95;5.18;;;20.20;45.30;;;;;;5073200;28;20208;-44
2022/09/04 01:43:57;;;;;;;7.95;5.70;;;20.30;45.40;;;;;;5073460;28;20222;-43
2022/09/04 01:46:52;;;;;;;8.02;6.68;;;20.30;45.30;;;;;;5072997;28;20240;-42
2022/09/04 01:49:34;;;;;;;6.05;5.20;;;20.30;45.30;;;;;;5073255;28;20645;-43
2022/09/04 01:52:28;;;;;;;7.25;5.85;;;20.30;45.40;;;;;;5073012;28;20230;-43
2022/09/04 01:55:23;;;;;;;7.95;5.90;;;20.30;45.50;;;;;;5073064;28;20165;-42
2022/09/04 01:57:52;;;;;;;7.93;6.03;;;20.30;45.70;;;;;;5072886;28;20156;-43
2022/09/04 02:00:21;;;;;;;6.63;5.95;;;20.30;45.60;;;;;;5072748;28;20196;-43
2022/09/04 02:03:06;;;;;;;6.47;5.28;;;20.20;45.30;;;;;;5072760;28;20176;-43
2022/09/04 02:05:47;;;;;;;6.15;5.07;;;20.30;45.50;;;;;;5072714;28;20636;-44
2022/09/04 02:08:15;;;;;;;5.38;4.85;;;20.30;45.40;;;;;;5073095;28;20172;-43
2022/09/04 02:10:52;;;;;;;6.47;5.90;;;20.30;45.60;;;;;;5072903;28;20612;-43
2022/09/04 02:14:09;;;;;;;7.00;5.20;;;20.30;45.40;;;;;;5072686;28;20227;-44
2022/09/04 02:16:52;;;;;;;7.90;5.40;;;20.20;45.30;;;;;;5049928;28;20196;-44
2022/09/04 02:20:05;;;;;;;6.53;5.00;;;20.20;45.20;;;;;;5072584;28;20199;-44
2022/09/04 02:22:40;;;;;;;7.00;5.95;;;20.20;45.50;;;;;;5072515;28;20660;-44
2022/09/04 02:25:25;;;;;;;6.57;5.57;;;20.20;45.50;;;;;;5072481;28;20164;-43
2022/09/04 02:28:02;;;;;;;8.07;5.57;;;20.20;45.60;;;;;;5072307;28;20169;-44
2022/09/04 02:30:39;;;;;;;6.38;5.50;;;20.20;45.50;;;;;;5072331;28;20215;-44
2022/09/04 02:33:30;;;;;;;5.25;4.75;;;20.20;45.40;;;;;;5072741;28;20506;-42
2022/09/04 02:36:04;;;;;;;7.00;6.28;;;20.20;45.50;;;;;;5072166;28;20362;-43
2022/09/04 02:38:39;;;;;;;6.38;5.68;;;20.10;45.30;;;;;;5072378;28;20513;-44
2022/09/04 02:41:16;;;;;;;6.93;6.03;;;20.10;45.30;;;;;;5072377;28;20206;-42
2022/09/04 02:43:41;;;;;;;7.10;5.70;;;20.20;46.10;;;;;;5072640;28;20160;-43
2022/09/04 02:46:17;;;;;;;6.90;4.63;;;20.20;45.50;;;;;;5071887;28;20165;-44
2022/09/04 02:49:01;;;;;;;6.25;5.63;;;20.20;45.40;;;;;;5072253;28;20243;-44
2022/09/04 02:51:53;;;;;;;6.10;5.55;;;20.20;45.70;;;;;;5072207;28;20208;-43
2022/09/04 02:54:25;;;;;;;7.22;5.97;;;20.20;45.70;;;;;;5072060;28;20177;-43
2022/09/04 02:57:06;;;;;;;5.95;5.45;;;20.20;45.60;;;;;;5071911;28;20574;-42
2022/09/04 03:00:03;;;;;;;8.25;6.43;;;20.20;45.60;;;;;;5072065;28;20184;-44
2022/09/04 03:03:14;;;;;;;7.82;6.38;;;20.20;45.60;;;;;;5072091;28;20184;-42
2022/09/04 03:05:45;;;;;;;6.10;5.50;;;20.10;45.70;;;;;;4994113;28;20172;-42
2022/09/04 03:08:22;;;;;;;6.85;6.03;;;20.10;45.60;;;;;;5072057;28;20153;-42
2022/09/04 03:10:59;;;;;;;7.28;5.63;;;20.10;45.60;;;;;;5071850;28;20204;-43
2022/09/04 03:13:42;;;;;;;7.40;6.65;;;20.10;45.50;;;;;;5072173;28;20221;-40
2022/09/04 03:16:08;;;;;;;7.85;5.20;;;20.00;45.30;;;;;;5072035;28;20173;-42
2022/09/04 03:18:48;;;;;;;9.60;5.20;;;20.00;45.40;;;;;;5072187;28;20222;-44
2022/09/04 03:21:38;;;;;;;5.65;5.15;;;20.00;45.50;;;;;;5072166;28;20228;-43
2022/09/04 03:24:36;;;;;;;6.30;5.70;;;20.00;45.70;;;;;;5071865;28;20165;-43
2022/09/04 03:27:06;;;;;;;7.03;6.22;;;20.00;46.00;;;;;;5071692;28;20535;-42
2022/09/04 03:30:04;;;;;;;8.55;6.30;;;19.90;46.10;;;;;;5071795;28;20172;-44
2022/09/04 03:33:03;;;;;;;7.50;5.63;;;19.90;46.20;;;;;;5071671;28;20177;-44
2022/09/04 03:35:35;;;;;;;6.30;5.53;;;19.90;46.40;;;;;;5072653;28;20156;-44
2022/09/04 03:38:29;;;;;;;6.70;5.80;;;19.90;46.20;;;;;;5075675;28;20176;-44
2022/09/04 03:41:34;;;;;;;7.90;5.72;;;19.90;46.30;;;;;;5062104;28;20215;-43
2022/09/04 03:44:19;;;;;;;7.80;6.32;;;19.90;46.30;;;;;;5075596;28;20176;-44
2022/09/04 03:47:17;;;;;;;8.10;5.65;;;19.90;46.40;;;;;;5075367;28;20214;-44
2022/09/04 03:49:52;;;;;;;5.78;5.07;;;19.90;46.30;;;;;;5075409;28;20149;-43
2022/09/04 03:52:32;;;;;;;7.57;6.88;;;19.90;46.50;;;;;;5075479;28;20651;-43
2022/09/04 03:55:02;;;;;;;7.72;6.35;;;19.90;46.50;;;;;;5075282;28;21041;-43
2022/09/04 03:57:40;;;;;;;7.53;6.15;;;19.90;47.10;;;;;;5075085;28;20172;-43
2022/09/04 04:00:08;;;;;;;6.60;6.00;;;19.80;46.20;;;;;;5075203;28;20188;-44
2022/09/04 04:02:44;;;;;;;7.75;6.40;;;19.80;46.10;;;;;;5075461;28;20215;-43
2022/09/04 04:05:27;;;;;;;8.75;6.85;;;19.80;46.00;;;;;;5075074;28;20172;-44
2022/09/04 04:08:37;;;;;;;6.35;5.75;;;19.90;46.00;;;;;;5074944;28;20672;-43
2022/09/04 04:11:31;;;;;;;6.82;6.13;;;19.90;46.00;;;;;;5063950;28;20212;-43
2022/09/04 04:14:36;;;;;;;9.88;6.25;;;19.90;46.20;;;;;;5075252;28;20529;-42
2022/09/04 04:17:20;;;;;;;7.13;5.68;;;19.90;46.20;;;;;;5074751;28;20168;-43
2022/09/04 04:20:04;;;;;;;7.97;7.15;;;19.80;46.20;;;;;;5074777;28;20279;-43
2022/09/04 04:22:45;;;;;;;8.30;6.20;;;19.80;46.20;;;;;;5075033;28;20276;-44
2022/09/04 04:25:39;;;;;;;6.55;5.95;;;19.70;46.00;;;;;;5074989;28;20214;-43
2022/09/04 04:28:13;;;;;;;6.85;6.10;;;19.80;46.00;;;;;;5074669;28;20255;-43
2022/09/04 04:31:13;;;;;;;8.77;5.55;;;19.70;46.10;;;;;;5074667;28;20711;-42
2022/09/04 04:33:57;;;;;;;7.00;6.05;;;19.70;46.30;;;;;;5035386;28;20181;-44
2022/09/04 04:36:29;;;;;;;7.28;5.68;;;19.80;46.20;;;;;;5074443;28;20621;-43
2022/09/04 04:39:06;;;;;;;6.70;5.97;;;19.70;46.10;;;;;;5074603;28;20175;-43
2022/09/04 04:47:52;;;;;;;8.85;6.82;;;19.70;46.10;;;;;;5074490;28;20243;-43
2022/09/04 04:50:34;;;;;;;6.07;5.50;;;19.70;46.30;;;;;;5074505;28;20204;-44
2022/09/04 04:53:24;;;;;;;5.88;5.25;;;19.70;46.30;;;;;;5074279;28;20642;-44
2022/09/04 04:56:20;;;;;;;6.55;5.95;;;19.70;46.00;;;;;;5074268;28;20180;-43
2022/09/04 04:58:52;;;;;;;6.82;6.13;;;19.80;45.90;;;;;;5027080;28;20203;-43
2022/09/04 05:01:21;;;;;;;7.15;6.45;;;19.80;46.40;;;;;;5073983;28;20244;-44
2022/09/04 05:04:23;;;;;;;7.28;6.47;;;19.80;45.70;;;;;;5074447;28;20238;-43
2022/09/04 05:07:00;;;;;;;7.10;6.40;;;19.80;45.60;;;;;;5073967;28;20169;-43
2022/09/04 05:09:44;;;;;;;9.52;6.30;;;19.80;45.60;;;;;;5074084;28;20175;-43
2022/09/04 05:12:24;;;;;;;7.10;6.40;;;19.80;45.70;;;;;;5074203;28;20199;-44
2022/09/04 05:15:10;;;;;;;7.93;5.95;;;19.90;45.70;;;;;;5074216;28;20164;-44
2022/09/04 05:18:00;;;;;;;7.15;6.10;;;19.90;45.70;;;;;;5072953;28;20195;-44
2022/09/04 05:20:56;;;;;;;6.53;5.85;;;19.90;45.90;;;;;;5073612;28;20679;-44
2022/09/04 05:23:51;;;;;;;7.80;7.00;;;20.00;45.50;;;;;;5073804;28;20168;-43
2022/09/04 05:26:29;;;;;;;7.00;6.28;;;20.00;45.30;;;;;;5022258;28;20172;-42
2022/09/04 05:29:22;;;;;;;8.13;6.85;;;20.00;45.20;;;;;;5073790;28;20173;-44
2022/09/04 05:31:57;;;;;;;6.80;6.20;;;20.10;45.30;;;;;;5073444;28;20196;-43
2022/09/04 05:34:58;;;;;;;7.93;7.07;;;20.20;45.30;;;;;;5073666;28;20309;-43
2022/09/04 05:37:49;;;;;;;6.30;5.55;;;20.20;45.40;;;;;;5073315;28;20222;-43
2022/09/04 05:40:29;;;;;;;6.45;5.85;;;20.30;45.50;;;;;;5073280;28;20664;-44
2022/09/04 05:43:10;;;;;;;9.10;7.35;;;20.30;45.50;;;;;;5073206;28;20181;-44
2022/09/04 05:45:51;;;;;;;15.95;7.95;;;20.30;45.60;;;;;;5073082;28;20192;-43
2022/09/04 05:48:21;;;;;;;7.38;6.60;;;20.40;45.40;;;;;;5073491;28;20179;-44
2022/09/04 05:51:17;;;;;;;6.78;6.18;;;20.40;45.30;;;;;;5073199;28;20196;-44
2022/09/04 05:53:50;;;;;;;7.40;6.50;;;20.50;45.30;;;;;;5073108;28;20829;-43
2022/09/04 05:56:46;;;;;;;8.18;6.90;;;20.50;45.10;;;;;;5073010;28;20238;-43
2022/09/04 05:59:27;;;;;;;6.35;5.72;;;20.60;45.40;;;;;;5072469;28;20172;-44
2022/09/04 06:02:10;;;;;;;7.60;6.75;;;20.70;45.30;;;;;;5072809;28;20671;-44
2022/09/04 06:05:12;;;;;;;6.45;5.85;;;20.70;45.00;;;;;;5072965;28;20703;-44
2022/09/04 06:08:16;;;;;;;12.27;7.40;;;20.80;44.90;;;;;;5072643;28;20267;-45
2022/09/04 06:11:24;;;;;;;6.47;5.80;;;20.90;44.70;;;;;;5072710;28;20545;-44
2022/09/04 06:14:17;;;;;;;7.03;6.32;;;20.90;44.50;;;;;;5072754;28;20164;-43
2022/09/04 06:16:54;;;;;;;6.00;5.47;;;21.00;44.60;;;;;;5072465;28;20635;-44
2022/09/04 06:19:38;;;;;;;7.75;5.95;;;21.00;44.50;;;;;;5072636;28;20164;-43
2022/09/04 06:22:23;;;;;;;7.53;6.82;;;21.10;44.60;;;;;;5072343;28;20208;-45
2022/09/04 06:25:07;;;;;;;6.10;5.50;;;21.20;44.40;;;;;;5072426;28;20173;-44
2022/09/04 06:27:39;;;;;;;8.18;7.38;;;21.30;44.30;;;;;;5072255;28;20175;-44
2022/09/04 06:30:06;;;;;;;7.43;6.10;;;21.30;44.20;;;;;;5072384;28;20192;-43
2022/09/04 06:32:32;;;;;;;7.65;6.82;;;21.30;44.10;;;;;;5072450;28;20203;-44
2022/09/04 06:35:05;;;;;;;9.00;6.53;;;21.40;43.70;;;;;;5072407;28;20196;-43
2022/09/04 06:37:51;;;;;;;11.75;6.82;;;21.40;43.60;;;;;;5072028;28;20192;-43
2022/09/04 06:40:46;;;;;;;7.13;5.23;;;21.50;43.80;;;;;;5071041;28;20283;-45
2022/09/04 06:43:26;;;;;;;6.93;5.28;;;21.60;43.60;;;;;;5071719;28;20446;-43
2022/09/04 06:45:57;;;;;;;6.28;5.65;;;21.60;43.70;;;;;;5072283;28;20164;-43
2022/09/04 06:48:34;;;;;;;7.23;6.53;;;21.60;43.20;;;;;;5072196;28;20172;-43
2022/09/04 06:51:14;;;;;;;7.00;6.40;;;21.70;43.20;;;;;;5072115;28;20429;-43
2022/09/04 06:53:49;;;;;;;8.17;6.30;;;21.70;43.40;;;;;;5072494;28;20405;-43
2022/09/04 06:56:56;;;;;;;6.80;6.17;;;21.80;44.30;;;;;;5072083;28;20405;-44
2022/09/04 06:59:53;;;;;;;8.10;7.10;;;21.90;42.70;;;;;;5072316;28;20417;-43
2022/09/04 07:02:27;;;;;;;7.13;5.88;;;22.00;42.40;;;;;;5071905;28;20438;-43
2022/09/04 07:05:15;;;;;;;6.68;6.05;;;21.90;42.30;;;;;;5072326;28;20548;-44
2022/09/04 07:08:11;;;;;;;6.90;6.10;;;21.90;42.50;;;;;;5071803;28;20176;-43
2022/09/04 07:11:15;;;;;;;7.10;6.43;;;22.00;42.30;;;;;;5070798;28;20422;-44
2022/09/04 07:14:15;;;;;;;7.40;6.60;;;22.10;42.20;;;;;;5041677;28;20415;-43
2022/09/04 07:16:47;;;;;;;8.43;6.53;;;22.10;42.00;;;;;;5071787;28;20431;-42
2022/09/04 07:19:38;;;;;;;11.17;6.00;;;22.20;42.80;;;;;;5072185;28;20474;-43
2022/09/04 07:22:25;;;;;;;11.10;6.30;;;22.30;42.00;;;;;;5071677;28;20469;-43
2022/09/04 07:25:00;;;;;;;6.83;6.13;;;22.40;42.20;;;;;;5071840;28;20922;-45
2022/09/04 07:27:46;;;;;;;6.90;6.20;;;22.50;42.50;;;;;;5071805;28;20383;-43
2022/09/04 07:30:15;;;;;;;5.80;5.20;;;22.60;41.90;;;;;;5071725;28;20433;-44
2022/09/04 07:32:52;;;;;;;5.90;5.40;;;22.70;41.40;;;;;;5071738;28;20719;-43
2022/09/04 07:35:21;;;;;;;9.50;6.27;;;22.80;41.40;;;;;;5072031;28;20419;-44
2022/09/04 07:37:57;;;;;;;6.27;5.57;;;22.90;41.10;;;;;;5071487;28;20411;-44
2022/09/04 07:40:33;;;;;;;5.83;5.30;;;23.00;41.50;;;;;;5071557;28;20563;-43
2022/09/04 07:43:11;;;;;;;6.40;5.80;;;23.10;41.70;;;;;;5071657;28;20411;-43
2022/09/04 07:45:46;;;;;;;8.80;5.70;;;23.20;41.20;;;;;;5071417;28;20390;-43
2022/09/04 07:48:37;;;;;;;11.40;5.50;;;23.30;41.40;;;;;;5054394;28;20383;-44
2022/09/04 07:51:31;;;;;;;8.27;6.37;;;23.40;41.30;;;;;;5071820;28;20779;-44
2022/09/04 07:54:16;;;;;;;6.27;5.70;;;23.50;39.80;;;;;;5061894;28;20505;-44
2022/09/04 07:57:00;;;;;;;6.60;5.47;;;23.40;39.10;;;;;;5071193;28;20418;-43
2022/09/04 07:59:53;;;;;;;6.17;5.40;;;23.40;38.20;;;;;;5072015;28;20403;-42
2022/09/04 08:02:31;;;;;;;5.67;5.00;;;23.40;39.00;;;;;;5072239;28;20797;-43
2022/09/04 08:05:14;;;;;;;6.37;5.47;;;23.30;39.30;;;;;;5071834;28;20403;-43
2022/09/04 08:07:39;;;;;;;9.07;6.20;;;23.50;39.90;;;;;;5071827;28;20433;-43
2022/09/04 08:10:06;;;;;;;7.07;5.30;;;23.60;40.30;;;;;;5071339;28;20454;-44
2022/09/04 08:13:02;;;;;;;5.50;5.00;;;23.70;40.30;;;;;;5071705;28;20172;-42
2022/09/04 08:15:48;;;;;;;6.33;5.13;;;23.90;40.00;;;;;;5071517;28;20403;-44
2022/09/04 08:18:28;;;;;;;7.03;5.10;;;23.90;39.20;;;;;;5070925;28;20438;-43
2022/09/04 08:21:08;;;;;;;6.60;6.00;;;24.10;39.90;;;;;;5071054;28;20458;-43
2022/09/04 08:23:52;;;;;;;7.20;6.10;;;24.20;40.20;;;;;;5075206;28;20407;-43
2022/09/04 08:26:45;;;;;;;6.33;5.80;;;24.40;40.60;;;;;;5074985;28;20399;-43
2022/09/04 08:29:28;;;;;;;7.33;6.17;;;24.60;40.30;;;;;;5074695;28;20398;-43
2022/09/04 08:32:34;;;;;;;5.70;4.97;;;24.70;37.60;;;;;;5074549;28;20434;-43
2022/09/04 08:35:23;;;;;;;6.10;5.07;;;24.70;38.00;;;;;;5019211;28;20784;-44
2022/09/04 08:38:38;;;;;;;7.97;5.67;;;24.60;37.00;;;;;;5074426;28;20398;-45
2022/09/04 08:41:40;;;;;;;9.60;6.07;;;24.60;38.20;;;;;;5043136;28;20463;-44
2022/09/04 08:44:29;;;;;;;9.57;4.97;;;24.60;37.30;;;;;;5074825;28;20436;-44
2022/09/04 08:47:03;;;;;;;6.27;5.63;;;24.60;37.20;;;;;;5074276;28;20395;-43
2022/09/04 08:49:52;;;;;;;6.30;5.60;;;24.60;37.50;;;;;;5074293;28;20510;-44
2022/09/04 08:53:04;;;;;;;9.23;5.10;;;24.60;37.60;;;;;;5074262;28;20476;-43
2022/09/04 08:55:38;;;;;;;6.40;4.50;;;24.70;38.50;;;;;;5074076;28;21001;-46
2022/09/04 08:58:32;;;;;;;5.27;4.70;;;24.80;38.00;;;;;;5074219;28;20406;-43
2022/09/04 09:01:17;;;;;;;5.30;4.80;;;25.00;39.00;;;;;;5074046;28;20458;-44
2022/09/04 09:04:04;;;;;;;8.77;5.10;;;25.10;38.70;;;;;;5074371;28;20403;-43
2022/09/04 09:06:47;;;;;;;5.00;4.50;;;25.20;38.10;;;;;;5073772;28;20736;-45
2022/09/04 09:09:42;;;;;;;4.60;4.20;;;25.30;38.30;;;;;;5074154;28;20443;-43
2022/09/04 09:12:40;;;;;;;5.47;4.97;;;25.40;38.60;;;;;;5069009;28;20419;-44
2022/09/04 09:15:15;;;;;;;5.90;5.40;;;25.60;38.00;;;;;;5074096;28;20414;-43
2022/09/04 09:18:19;;;;;;;6.00;5.37;;;25.70;37.00;;;;;;5073557;28;20431;-43
2022/09/04 09:20:57;;;;;;;6.20;5.60;;;25.80;36.40;;;;;;5073459;28;20462;-44
2022/09/04 09:23:43;;;;;;;5.47;4.73;;;25.70;37.00;;;;;;5073985;28;20399;-43
2022/09/04 09:26:17;;;;;;;5.37;4.87;;;25.90;37.20;;;;;;5073338;28;20419;-43
2022/09/04 09:28:43;;;;;;;5.53;5.00;;;25.80;36.40;;;;;;5073627;28;20421;-42
2022/09/04 09:31:21;;;;;;;6.73;5.17;;;25.80;36.50;;;;;;5073495;28;20431;-43
2022/09/04 09:34:10;;;;;;;4.90;4.43;;;26.00;37.70;;;;;;5072778;28;20259;-44
2022/09/04 09:36:39;;;;;;;5.80;4.67;;;26.10;37.70;;;;;;5073132;28;20414;-43
2022/09/04 09:39:08;;;;;;;7.13;4.97;;;26.20;36.00;;;;;;5073412;28;20413;-45
2022/09/04 09:41:58;;;;;;;5.37;4.87;;;26.10;35.80;;;;;;5073222;28;20510;-44
2022/09/04 09:44:57;;;;;;;5.57;5.07;;;26.20;36.10;;;;;;5073242;28;20460;-44
2022/09/04 09:48:01;;;;;;;4.90;4.40;;;26.30;36.90;;;;;;5073031;28;20391;-44
2022/09/04 09:50:45;;;;;;;4.87;4.27;;;26.40;36.10;;;;;;5073512;28;20906;-43
2022/09/04 09:53:48;;;;;;;5.73;4.70;;;26.50;36.10;;;;;;5073355;28;20474;-45
2022/09/04 09:56:51;;;;;;;5.00;4.20;;;26.40;35.40;;;;;;5073060;28;20406;-44
2022/09/04 09:59:26;;;;;;;6.40;4.67;;;26.60;35.70;;;;;;5073076;28;20625;-45
2022/09/04 10:02:29;;;;;;;5.10;4.60;;;26.60;35.30;;;;;;5072775;28;20464;-45
2022/09/04 10:05:37;;;;;;;4.13;3.77;;;26.70;35.60;;;;;;5072957;28;20398;-44
2022/09/04 10:08:13;;;;;;;6.40;4.70;;;26.90;34.50;;;;;;4993404;28;20415;-45
2022/09/04 10:10:47;;;;;;;6.17;4.47;;;27.00;35.10;;;;;;5072808;28;20423;-44
2022/09/04 10:13:31;;;;;;;4.53;4.13;;;27.10;36.20;;;;;;5072768;28;20409;-45
2022/09/04 10:16:31;;;;;;;4.57;4.17;;;27.20;35.80;;;;;;5072760;28;20746;-45
2022/09/04 10:19:18;;;;;;;4.40;4.00;;;27.30;34.90;;;;;;5072948;28;20390;-43
2022/09/04 10:22:05;;;;;;;6.40;4.77;;;27.40;35.60;;;;;;5072341;28;20565;-45
2022/09/04 10:25:08;;;;;;;8.27;5.13;;;27.50;35.50;;;;;;5072536;28;20426;-43
2022/09/04 10:28:01;;;;;;;4.10;3.27;;;27.50;32.00;;;;;;5072672;28;20405;-45
2022/09/04 10:30:45;;;;;;;3.50;3.20;;;27.60;33.70;;;;;;5072428;28;20416;-44
2022/09/04 10:33:22;;;;;;;4.67;3.83;;;27.60;34.40;;;;;;5072497;28;20401;-45
2022/09/04 10:36:17;;;;;;;4.57;4.07;;;27.70;33.80;;;;;;5054268;28;20513;-45
2022/09/04 10:41:42;;;;;;;4.63;4.23;;;27.90;34.10;;;;;;5072215;28;20895;-44
2022/09/04 10:44:18;;;;;;;4.60;4.13;;;28.00;34.50;;;;;;5072163;28;20427;-45
2022/09/04 10:47:15;;;;;;;3.70;3.30;;;28.20;34.20;;;;;;5036706;28;20918;-44
2022/09/04 10:50:13;;;;;;;4.83;4.37;;;28.30;32.00;;;;;;5071401;28;20889;-44
2022/09/04 10:52:59;;;;;;;4.63;3.67;;;28.40;33.70;;;;;;5049431;28;20422;-44
2022/09/04 10:55:41;;;;;;;7.40;4.20;;;28.50;32.40;;;;;;5072070;28;20414;-44
2022/09/04 10:58:26;;;;;;;4.63;3.77;;;28.50;31.40;;;;;;5072116;28;20493;-45
2022/09/04 11:01:07;;;;;;;4.53;4.13;;;28.30;31.50;;;;;;5072221;28;20922;-44
2022/09/04 11:04:12;;;;;;;4.27;3.83;;;28.40;33.20;;;;;;5072164;28;20390;-45
2022/09/04 11:07:00;;;;;;;5.63;4.23;;;28.60;31.60;;;;;;5071727;28;20426;-44
2022/09/04 11:09:52;;;;;;;5.60;3.63;;;28.50;31.60;;;;;;5072029;28;20448;-45
2022/09/04 11:12:24;;;;;;;5.53;4.00;;;28.70;32.70;;;;;;5071990;28;20419;-43
2022/09/04 11:15:02;;;;;;;7.77;3.70;;;28.90;32.30;;;;;;5072171;28;20770;-43
2022/09/04 11:17:52;;;;;;;7.90;3.60;;;28.90;30.80;;;;;;5071956;28;20398;-45
2022/09/04 11:20:38;;;;;;;6.30;4.60;;;28.90;31.30;;;;;;5071827;28;20512;-45
2022/09/04 11:23:34;;;;;;;4.13;3.73;;;28.80;32.40;;;;;;5072149;28;20458;-43
2022/09/04 11:26:19;;;;;;;4.17;3.57;;;28.70;32.50;;;;;;5071485;28;20411;-44
2022/09/04 11:29:15;;;;;;;4.47;4.07;;;28.60;33.10;;;;;;5071860;28;20429;-45
2022/09/04 11:32:02;;;;;;;4.30;3.90;;;28.60;33.10;;;;;;5071920;28;20775;-45
2022/09/04 11:35:05;;;;;;;6.97;4.37;;;28.50;33.70;;;;;;5071783;28;20406;-44
2022/09/04 11:38:18;;;;;;;7.80;4.37;;;28.40;33.40;;;;;;5071762;28;20414;-45
2022/09/04 11:41:03;;;;;;;4.90;3.67;;;28.30;33.60;;;;;;5071510;28;20442;-44
2022/09/04 11:43:48;;;;;;;4.87;4.40;;;28.20;34.00;;;;;;5071583;28;20902;-45
2022/09/04 11:46:28;;;;;;;4.70;4.20;;;28.20;34.40;;;;;;5071492;28;20402;-45
2022/09/04 11:49:30;;;;;;;5.53;3.93;;;28.20;34.40;;;;;;5071573;28;20468;-44
2022/09/04 11:52:14;;;;;;;5.10;3.63;;;28.20;33.90;;;;;;4970480;28;20479;-43
2022/09/04 11:54:59;;;;;;;5.97;4.63;;;28.20;34.20;;;;;;5064375;28;20957;-43
2022/09/04 11:57:41;;;;;;;6.60;4.53;;;28.20;34.50;;;;;;5073592;28;20409;-45
2022/09/04 12:00:11;;;;;;;7.43;4.20;;;28.20;34.40;;;;;;5075016;28;20462;-44
2022/09/04 12:03:01;;;;;;;5.03;4.37;;;28.20;34.80;;;;;;5075326;28;20477;-43
2022/09/04 12:05:52;;;;;;;6.27;4.73;;;28.20;34.70;;;;;;5075261;28;20497;-43
2022/09/04 12:08:55;;;;;;;5.30;4.77;;;28.20;34.70;;;;;;5074999;28;20418;-44
2022/09/04 12:11:40;;;;;;;7.27;5.70;;;28.20;35.00;;;;;;5075209;28;20437;-45
2022/09/04 12:14:42;;;;;;;6.00;4.97;;;28.10;35.00;;;;;;5075030;28;20411;-45
2022/09/04 12:17:26;;;;;;;5.10;4.70;;;28.20;35.20;;;;;;5074922;28;20413;-45
2022/09/04 12:20:31;;;;;;;5.60;4.70;;;28.10;35.50;;;;;;5074729;28;21016;-45
2022/09/04 12:23:03;;;;;;;6.10;5.43;;;28.20;35.00;;;;;;5074918;28;20403;-44
2022/09/04 12:26:06;;;;;;;4.20;3.90;;;28.20;35.00;;;;;;5074731;28;20478;-43
2022/09/04 12:28:57;;;;;;;5.93;4.73;;;28.30;35.30;;;;;;5074824;28;20395;-45
2022/09/04 12:32:00;;;;;;;4.60;4.20;;;28.30;35.00;;;;;;5074625;28;20427;-44
2022/09/04 12:34:49;;;;;;;9.63;5.10;;;28.40;34.80;;;;;;5074640;28;20407;-45
2022/09/04 12:37:21;;;;;;;5.20;4.03;;;28.40;35.20;;;;;;5074342;28;20406;-43
2022/09/04 12:40:00;;;;;;;5.20;4.70;;;28.60;34.90;;;;;;5056373;28;20411;-45
2022/09/04 12:42:54;;;;;;;4.43;4.03;;;28.60;34.50;;;;;;5074486;28;20466;-43
2022/09/04 12:45:54;;;;;;;4.30;3.90;;;28.70;34.40;;;;;;4973432;28;20454;-43
2022/09/04 12:48:48;;;;;;;4.70;4.30;;;28.90;34.40;;;;;;4973380;28;20404;-45
2022/09/04 12:51:23;;;;;;;8.70;4.20;;;29.10;34.50;;;;;;4973284;28;20781;-44
2022/09/04 12:54:23;;;;;;;7.30;4.00;;;29.30;34.30;;;;;;4973372;28;20494;-44
2022/09/04 12:57:05;;;;;;;4.50;3.67;;;29.50;33.50;;;;;;4942163;28;21072;-44
2022/09/04 12:59:58;;;;;;;4.83;4.43;;;29.60;33.40;;;;;;4973192;28;20501;-45
2022/09/04 13:02:34;;;;;;;4.57;4.10;;;29.70;33.00;;;;;;4973173;28;20455;-43
2022/09/04 13:05:38;;;;;;;6.77;4.50;;;29.80;33.00;;;;;;4973186;28;20399;-44
2022/09/04 13:08:42;;;;;;;5.70;4.90;;;29.90;32.30;;;;;;4973010;28;20407;-43
2022/09/04 13:11:32;;;;;;;7.33;4.90;;;29.90;31.70;;;;;;4915420;29;20806;-44
2022/09/04 13:14:31;;;;;;;4.20;3.80;;;29.90;31.40;;;;;;4915715;29;20915;-43
2022/09/04 13:17:18;;;;;;;4.47;3.60;;;30.00;31.90;;;;;;4899420;29;20415;-44
2022/09/04 13:20:01;;;;;;;4.43;3.83;;;30.00;31.10;;;;;;4915462;29;20417;-44
2022/09/04 13:22:55;;;;;;;4.00;3.70;;;30.00;31.70;;;;;;4947011;28;20545;-44
2022/09/04 13:25:41;;;;;;;6.87;3.77;;;30.00;31.70;;;;;;4972852;28;20400;-44
2022/09/04 13:28:36;;;;;;;4.07;3.67;;;30.00;31.80;;;;;;4972678;28;20416;-43
2022/09/04 13:31:23;;;;;;;5.23;4.00;;;30.10;30.90;;;;;;4972488;28;20423;-44
2022/09/04 13:34:07;;;;;;;4.03;3.63;;;30.10;31.30;;;;;;4972597;28;20456;-44
2022/09/04 13:36:56;;;;;;;3.97;3.57;;;30.10;30.80;;;;;;4972803;28;20411;-44
2022/09/04 13:39:27;;;;;;;3.50;3.20;;;30.20;30.70;;;;;;4972950;28;20419;-44
2022/09/04 13:41:59;;;;;;;4.30;3.90;;;30.30;30.60;;;;;;4973058;28;20477;-44
2022/09/04 13:44:49;;;;;;;3.50;3.20;;;30.30;30.90;;;;;;4973508;28;20411;-44
2022/09/04 13:47:24;;;;;;;4.50;3.70;;;30.40;29.50;;;;;;4994045;28;20438;-44
2022/09/04 13:49:54;;;;;;;3.40;3.10;;;30.40;30.00;;;;;;5073453;28;20434;-44
2022/09/04 13:52:35;;;;;;;5.20;4.20;;;30.40;30.10;;;;;;5073219;28;20460;-44
2022/09/04 13:55:12;;;;;;;5.80;5.20;;;30.40;30.60;;;;;;5055344;28;20403;-44
2022/09/04 13:57:46;;;;;;;4.40;4.00;;;30.40;28.90;;;;;;5055113;28;20514;-44
2022/09/04 14:00:15;;;;;;;3.50;3.20;;;30.60;29.30;;;;;;5073021;28;20504;-44
2022/09/04 14:02:43;;;;;;;5.67;3.57;;;30.60;29.60;;;;;;5072927;28;20466;-44
2022/09/04 14:05:30;;;;;;;4.73;3.63;;;30.60;29.50;;;;;;5072926;28;20402;-44
2022/09/04 14:08:11;;;;;;;4.37;3.80;;;30.60;29.00;;;;;;5072825;28;20402;-44
2022/09/04 14:10:54;;;;;;;4.30;3.87;;;30.70;29.10;;;;;;5073114;28;20769;-44
2022/09/04 14:13:22;;;;;;;8.30;3.63;;;30.60;28.20;;;;;;5073168;28;20409;-44
2022/09/04 14:16:05;;;;;;;5.23;4.57;;;30.60;29.00;;;;;;5072367;28;20899;-44
2022/09/04 14:18:49;;;;;;;4.10;3.60;;;30.60;28.10;;;;;;5020828;28;20779;-44
2022/09/04 14:21:25;;;;;;;3.93;3.33;;;30.60;29.20;;;;;;5072511;28;20484;-44
2022/09/04 14:24:05;;;;;;;4.30;3.90;;;30.70;29.50;;;;;;5072896;28;20390;-43
2022/09/04 14:27:08;;;;;;;4.77;3.70;;;30.70;29.20;;;;;;5072379;28;20398;-44